Revloc, Pennsylvania
Current Conditions -  °F | °C
As of 7:54 AM on Thursday 30 Oct 2014 (Local Time) from KJST Reporting Station
Overcast Overcast  
Wind Chill: 34°   Ceiling: 1100
Heat Index: 39°   Visibility: 10mi
Dew Point: 34°   Wind: 7mph
Humidity: 82%   Direction: 280°W
Pressure: 30.03"   Gusts: NA
Location:  40.49°N, 78.76°W
Report Text: KJST 301154Z AUTO 28006KT 10SM BKN011 OVC019 04/01 A3003 RMK AO2 SLP181 T00390011 10056 20039 52010
Loading
Personal Weather Stations






























Interactive Weather Map
Tropical Storm Tracking
New forecast layout! Learn more

10-Day Weather Forecast

Advertisements
Track Severe Weather on mobile